Wetterdaten: Woche 28.06.10 - 04.07.10 (KW26)
Datum Zeit Temp. A. Feuchte A. Luftdruck Regen Wind Richtung Taupunkt Windchill Windben
28.06.2010 00:00 17,2 C 83 % 1015,9 hPa 0,0 l/m 0,0 km/h O-NO 14,3 C 17,2 C 0,0 km/h
28.06.2010 01:00 16,5 C 85 % 1016,0 hPa 0,0 l/m 0,0 km/h SO 14,0 C 16,5 C 0,0 km/h
28.06.2010 02:00 15,6 C 87 % 1015,6 hPa 0,0 l/m 0,0 km/h O 13,4 C 15,6 C 0,0 km/h
28.06.2010 03:00 14,4 C 88 % 1015,8 hPa 0,0 l/m 0,0 km/h O 12,4 C 14,4 C 0,0 km/h
28.06.2010 04:00 14,1 C 90 % 1015,8 hPa 0,0 l/m 0,0 km/h O-NO 12,5 C 14,1 C 0,0 km/h
28.06.2010 05:00 13,6 C 91 % 1016,0 hPa 0,0 l/m 0,0 km/h NO 12,2 C 13,6 C 0,0 km/h
28.06.2010 06:00 14,4 C 90 % 1016,5 hPa 0,0 l/m 0,0 km/h O-NO 12,8 C 14,4 C 0,0 km/h
28.06.2010 07:00 17,1 C 87 % 1016,9 hPa 0,0 l/m 0,0 km/h O-NO 14,9 C 17,1 C 0,0 km/h
28.06.2010 08:00 27,2 C 57 % 1017,2 hPa 0,0 l/m 0,0 km/h N 17,9 C 27,2 C 0,0 km/h
28.06.2010 09:00 29,6 C 49 % 1017,1 hPa 0,0 l/m 0,0 km/h S-SW 17,7 C 29,6 C 0,0 km/h
28.06.2010 10:00 32,1 C 46 % 1017,1 hPa 0,0 l/m 3,9 km/h SW 19,0 C 32,1 C 2,2 km/h
28.06.2010 11:00 33,0 C 44 % 1017,0 hPa 0,0 l/m 2,6 km/h SW 19,1 C 33,0 C 1,4 km/h
28.06.2010 12:00 31,3 C 48 % 1016,8 hPa 0,0 l/m 3,2 km/h W-SW 18,9 C 31,3 C 1,8 km/h
28.06.2010 13:00 31,9 C 45 % 1016,6 hPa 0,0 l/m 7,1 km/h W-NW 18,5 C 31,9 C 4,0 km/h
28.06.2010 14:00 32,1 C 40 % 1016,2 hPa 0,0 l/m 18,8 km/h N-NO 16,8 C 31,9 C 10,4 km/h
28.06.2010 15:00 34,1 C 36 % 1015,9 hPa 0,0 l/m 1,9 km/h N-NW 16,9 C 34,1 C 1,1 km/h
28.06.2010 16:00 36,6 C 30 % 1015,8 hPa 0,0 l/m 2,6 km/h NO 16,2 C 36,6 C 1,4 km/h
28.06.2010 17:00 37,5 C 26 % 1015,6 hPa 0,0 l/m 5,8 km/h N 14,7 C 37,5 C 3,2 km/h
28.06.2010 18:00 35,5 C 27 % 1015,4 hPa 0,0 l/m 4,5 km/h N 13,6 C 35,5 C 2,5 km/h
28.06.2010 19:00 32,7 C 33 % 1015,2 hPa 0,0 l/m 3,2 km/h N-NO 14,3 C 32,7 C 1,8 km/h
28.06.2010 20:00 27,3 C 45 % 1015,5 hPa 0,0 l/m 1,3 km/h SO 14,3 C 27,3 C 0,7 km/h
28.06.2010 21:00 22,1 C 62 % 1015,9 hPa 0,0 l/m 0,0 km/h O-NO 14,5 C 22,1 C 0,0 km/h
28.06.2010 22:00 20,2 C 70 % 1016,1 hPa 0,0 l/m 0,0 km/h N-NO 14,5 C 20,2 C 0,0 km/h
28.06.2010 23:00 19,2 C 78 % 1016,4 hPa 0,0 l/m 0,0 km/h O-SO 15,3 C 19,2 C 0,0 km/h
29.06.2010 00:00 18,5 C 79 % 1016,3 hPa 0,0 l/m 0,0 km/h NO 14,8 C 18,5 C 0,0 km/h
29.06.2010 01:00 18,1 C 80 % 1016,6 hPa 0,0 l/m 0,0 km/h O-NO 14,6 C 18,1 C 0,0 km/h
29.06.2010 02:00 16,6 C 83 % 1016,3 hPa 0,0 l/m 0,0 km/h O 13,7 C 16,6 C 0,0 km/h
29.06.2010 03:00 15,8 C 86 % 1016,2 hPa 0,0 l/m 0,0 km/h O-NO 13,5 C 15,8 C 0,0 km/h
29.06.2010 04:00 15,9 C 85 % 1016,2 hPa 0,0 l/m 0,0 km/h O-NO 13,4 C 15,9 C 0,0 km/h
29.06.2010 05:00 14,9 C 87 % 1016,5 hPa 0,0 l/m 0,0 km/h O-NO 12,8 C 14,9 C 0,0 km/h
29.06.2010 06:00 15,3 C 87 % 1016,7 hPa 0,0 l/m 0,0 km/h SO 13,1 C 15,3 C 0,0 km/h
29.06.2010 07:00 17,9 C 82 % 1016,8 hPa 0,0 l/m 0,0 km/h S-SO 14,8 C 17,9 C 0,0 km/h
29.06.2010 08:00 24,6 C 66 % 1016,8 hPa 0,0 l/m 2,6 km/h NW 17,8 C 24,6 C 1,4 km/h
29.06.2010 09:00 29,6 C 47 % 1017,2 hPa 0,0 l/m 3,2 km/h NO 17,1 C 29,6 C 1,8 km/h
29.06.2010 10:00 31,0 C 47 % 1017,0 hPa 0,0 l/m 0,0 km/h S-SW 18,3 C 31,0 C 0,0 km/h
29.06.2010 11:00 33,4 C 41 % 1016,8 hPa 0,0 l/m 0,0 km/h SW 18,3 C 33,4 C 0,0 km/h
29.06.2010 12:00 31,2 C 47 % 1016,6 hPa 0,0 l/m 0,0 km/h W 18,5 C 31,2 C 0,0 km/h
29.06.2010 13:00 32,3 C 43 % 1016,3 hPa 0,0 l/m 0,0 km/h NO 18,1 C 32,3 C 0,0 km/h
29.06.2010 14:00 33,1 C 37 % 1016,4 hPa 0,0 l/m 5,8 km/h SO 16,4 C 33,1 C 3,2 km/h
29.06.2010 15:00 34,2 C 38 % 1016,2 hPa 0,0 l/m 19,4 km/h O 17,8 C 34,2 C 10,8 km/h
29.06.2010 16:00 38,3 C 29 % 1015,9 hPa 0,0 l/m 0,0 km/h NO 17,1 C 38,3 C 0,0 km/h
29.06.2010 17:00 35,6 C 33 % 1015,5 hPa 0,0 l/m 1,3 km/h O-NO 16,8 C 35,6 C 0,7 km/h
29.06.2010 18:00 36,3 C 30 % 1015,4 hPa 0,0 l/m 0,0 km/h N-NO 15,9 C 36,3 C 0,0 km/h
29.06.2010 19:00 31,6 C 36 % 1015,5 hPa 0,0 l/m 0,0 km/h NO 14,7 C 31,6 C 0,0 km/h
29.06.2010 20:00 23,9 C 55 % 1015,9 hPa 0,0 l/m 0,0 km/h O 14,3 C 23,9 C 0,0 km/h
29.06.2010 21:00 22,5 C 64 % 1016,3 hPa 0,0 l/m 0,0 km/h SO 15,3 C 22,5 C 0,0 km/h
29.06.2010 22:00 19,5 C 74 % 1016,9 hPa 0,0 l/m 0,0 km/h S-SO 14,7 C 19,5 C 0,0 km/h
29.06.2010 23:00 19,3 C 78 % 1017,1 hPa 0,0 l/m 0,0 km/h SO 15,4 C 19,3 C 0,0 km/h
30.06.2010 00:00 18,1 C 80 % 1017,6 hPa 0,0 l/m 0,0 km/h O 14,6 C 18,1 C 0,0 km/h
30.06.2010 01:00 17,4 C 82 % 1017,5 hPa 0,0 l/m 0,0 km/h SO 14,3 C 17,4 C 0,0 km/h
30.06.2010 02:00 17,3 C 83 % 1017,5 hPa 0,0 l/m 0,0 km/h NO 14,4 C 17,3 C 0,0 km/h
30.06.2010 03:00 16,3 C 86 % 1017,4 hPa 0,0 l/m 0,0 km/h O-NO 14,0 C 16,3 C 0,0 km/h
30.06.2010 04:00 15,5 C 87 % 1017,4 hPa 0,0 l/m 0,0 km/h O-NO 13,3 C 15,5 C 0,0 km/h
30.06.2010 05:00 15,0 C 90 % 1017,6 hPa 0,0 l/m 0,0 km/h O 13,4 C 15,0 C 0,0 km/h
30.06.2010 06:00 15,9 C 89 % 1018,0 hPa 0,0 l/m 0,0 km/h SO 14,1 C 15,9 C 0,0 km/h
30.06.2010 07:00 18,9 C 82 % 1017,9 hPa 0,0 l/m 1,3 km/h S-SW 15,8 C 18,9 C 0,7 km/h
30.06.2010 08:00 26,8 C 62 % 1018,0 hPa 0,0 l/m 0,0 km/h S-SW 18,9 C 26,8 C 0,0 km/h
30.06.2010 09:00 29,9 C 53 % 1018,4 hPa 0,0 l/m 0,0 km/h W-SW 19,3 C 29,9 C 0,0 km/h
30.06.2010 10:00 27,8 C 55 % 1018,3 hPa 0,0 l/m 0,0 km/h W 17,9 C 27,8 C 0,0 km/h
30.06.2010 11:00 30,4 C 52 % 1018,3 hPa 0,0 l/m 0,0 km/h W 19,4 C 30,4 C 0,0 km/h
30.06.2010 12:00 30,6 C 51 % 1018,0 hPa 0,0 l/m 0,0 km/h NW 19,3 C 30,6 C 0,0 km/h
30.06.2010 13:00 31,2 C 44 % 1017,6 hPa 0,0 l/m 2,6 km/h N-NO 17,5 C 31,2 C 1,4 km/h
30.06.2010 14:00 32,5 C 40 % 1017,4 hPa 0,0 l/m 2,6 km/h N-NW 17,1 C 32,5 C 1,4 km/h
30.06.2010 15:00 32,8 C 38 % 1017,0 hPa 0,0 l/m 6,5 km/h N 16,6 C 32,8 C 3,6 km/h
30.06.2010 16:00 35,9 C 32 % 1016,7 hPa 0,0 l/m 0,0 km/h N-NW 16,6 C 35,9 C 0,0 km/h
30.06.2010 17:00 35,3 C 33 % 1016,3 hPa 0,0 l/m 5,2 km/h N-NW 16,5 C 35,3 C 2,9 km/h
30.06.2010 18:00 35,1 C 32 % 1016,2 hPa 0,0 l/m 0,0 km/h N-NO 15,9 C 35,1 C 0,0 km/h
30.06.2010 19:00 29,4 C 44 % 1016,2 hPa 0,0 l/m 4,5 km/h NO 15,8 C 29,4 C 2,5 km/h
30.06.2010 20:00 26,8 C 52 % 1016,3 hPa 0,0 l/m 0,0 km/h SO 16,1 C 26,8 C 0,0 km/h
30.06.2010 21:00 21,8 C 69 % 1016,7 hPa 0,0 l/m 1,9 km/h O-NO 15,9 C 21,8 C 1,1 km/h
30.06.2010 22:00 19,7 C 73 % 1017,2 hPa 0,0 l/m 0,0 km/h O-SO 14,7 C 19,7 C 0,0 km/h
30.06.2010 23:00 18,8 C 77 % 1017,1 hPa 0,0 l/m 0,0 km/h O-SO 14,7 C 18,8 C 0,0 km/h
01.07.2010 00:00 18,2 C 80 % 1017,0 hPa 0,0 l/m 0,0 km/h O-NO 14,7 C 18,2 C 0,0 km/h
01.07.2010 01:00 17,6 C 82 % 1016,7 hPa 0,0 l/m 0,0 km/h NO 14,5 C 17,6 C 0,0 km/h
01.07.2010 02:00 17,6 C 82 % 1016,6 hPa 0,0 l/m 0,0 km/h NO 14,5 C 17,6 C 0,0 km/h
01.07.2010 03:00 16,4 C 86 % 1016,3 hPa 0,0 l/m 0,0 km/h SO 14,1 C 16,4 C 0,0 km/h
01.07.2010 04:00 17,1 C 84 % 1016,1 hPa 0,0 l/m 0,0 km/h O-NO 14,4 C 17,1 C 0,0 km/h
01.07.2010 05:00 16,1 C 85 % 1016,2 hPa 0,0 l/m 0,0 km/h S-SO 13,6 C 16,1 C 0,0 km/h
01.07.2010 06:00 16,1 C 87 % 1016,2 hPa 0,0 l/m 0,0 km/h S-SO 13,9 C 16,1 C 0,0 km/h
01.07.2010 07:00 18,1 C 84 % 1016,1 hPa 0,0 l/m 0,0 km/h N-NW 15,4 C 18,1 C 0,0 km/h
01.07.2010 08:00 26,3 C 62 % 1016,3 hPa 0,0 l/m 0,0 km/h SW 18,4 C 26,3 C 0,0 km/h
01.07.2010 09:00 31,3 C 47 % 1016,0 hPa 0,0 l/m 0,0 km/h W-SW 18,6 C 31,3 C 0,0 km/h
01.07.2010 10:00 31,8 C 45 % 1015,8 hPa 0,0 l/m 0,0 km/h S 18,4 C 31,8 C 0,0 km/h
01.07.2010 11:00 33,4 C 44 % 1015,6 hPa 0,0 l/m 1,3 km/h NW 19,4 C 33,4 C 0,7 km/h
01.07.2010 12:00 32,4 C 44 % 1015,3 hPa 0,0 l/m 6,5 km/h N-NW 18,5 C 32,4 C 3,6 km/h
01.07.2010 13:00 33,1 C 40 % 1015,1 hPa 0,0 l/m 3,2 km/h N 17,7 C 33,1 C 1,8 km/h
01.07.2010 14:00 34,2 C 38 % 1014,8 hPa 0,0 l/m 10,4 km/h NO 17,8 C 34,2 C 5,8 km/h
01.07.2010 15:00 34,2 C 35 % 1014,6 hPa 0,0 l/m 9,7 km/h N-NO 16,5 C 34,2 C 5,4 km/h
01.07.2010 16:00 34,6 C 34 % 1014,2 hPa 0,0 l/m 0,0 km/h W 16,4 C 34,6 C 0,0 km/h
01.07.2010 17:00 38,2 C 29 % 1013,6 hPa 0,0 l/m 6,5 km/h N 17,0 C 38,2 C 3,6 km/h
01.07.2010 18:00 33,1 C 34 % 1013,4 hPa 0,0 l/m 0,0 km/h N 15,1 C 33,1 C 0,0 km/h
01.07.2010 19:00 32,3 C 37 % 1013,5 hPa 0,0 l/m 2,6 km/h N-NW 15,7 C 32,3 C 1,4 km/h
01.07.2010 20:00 27,6 C 48 % 1013,7 hPa 0,0 l/m 0,0 km/h O-NO 15,6 C 27,6 C 0,0 km/h
01.07.2010 21:00 22,9 C 63 % 1013,6 hPa 0,0 l/m 0,0 km/h O-NO 15,5 C 22,9 C 0,0 km/h
01.07.2010 22:00 20,5 C 70 % 1013,7 hPa 0,0 l/m 0,0 km/h O-NO 14,8 C 20,5 C 0,0 km/h
01.07.2010 23:00 19,2 C 75 % 1014,0 hPa 0,0 l/m 0,0 km/h O-NO 14,7 C 19,2 C 0,0 km/h
02.07.2010 00:00 18,5 C 77 % 1014,1 hPa 0,0 l/m 0,0 km/h NO 14,4 C 18,5 C 0,0 km/h
02.07.2010 01:00 17,8 C 80 % 1014,3 hPa 0,0 l/m 0,0 km/h O-SO 14,3 C 17,8 C 0,0 km/h
02.07.2010 02:00 17,3 C 82 % 1014,1 hPa 0,0 l/m 0,0 km/h O-SO 14,2 C 17,3 C 0,0 km/h
02.07.2010 03:00 16,4 C 84 % 1013,9 hPa 0,0 l/m 0,0 km/h O-NO 13,7 C 16,4 C 0,0 km/h
02.07.2010 04:00 15,8 C 85 % 1014,3 hPa 0,0 l/m 0,0 km/h O-NO 13,3 C 15,8 C 0,0 km/h
02.07.2010 05:00 15,1 C 87 % 1014,3 hPa 0,0 l/m 0,0 km/h O-SO 13,0 C 15,1 C 0,0 km/h
02.07.2010 06:00 15,4 C 88 % 1014,2 hPa 0,0 l/m 0,0 km/h O-NO 13,4 C 15,4 C 0,0 km/h
02.07.2010 07:00 17,3 C 84 % 1014,3 hPa 0,0 l/m 0,0 km/h O-SO 14,6 C 17,3 C 0,0 km/h
02.07.2010 08:00 25,2 C 67 % 1014,7 hPa 0,0 l/m 0,0 km/h NW 18,6 C 25,2 C 0,0 km/h
02.07.2010 09:00 31,8 C 46 % 1014,6 hPa 0,0 l/m 3,2 km/h SW 18,7 C 31,8 C 1,8 km/h
02.07.2010 10:00 32,6 C 45 % 1014,7 hPa 0,0 l/m 0,0 km/h W-SW 19,1 C 32,6 C 0,0 km/h
02.07.2010 11:00 35,5 C 38 % 1014,7 hPa 0,0 l/m 0,0 km/h W 19,0 C 35,5 C 0,0 km/h
02.07.2010 12:00 34,2 C 41 % 1014,7 hPa 0,0 l/m 1,9 km/h N 19,0 C 34,2 C 1,1 km/h
02.07.2010 13:00 34,8 C 33 % 1014,4 hPa 0,0 l/m 0,0 km/h N-NO 16,1 C 34,8 C 0,0 km/h
02.07.2010 14:00 36,0 C 29 % 1014,0 hPa 0,0 l/m 2,6 km/h N 15,1 C 36,0 C 1,4 km/h
02.07.2010 15:00 37,3 C 26 % 1013,8 hPa 0,0 l/m 11,0 km/h N-NO 14,5 C 37,3 C 6,1 km/h
02.07.2010 16:00 41,8 C 23 % 1013,3 hPa 0,0 l/m 5,2 km/h W 16,4 C 41,8 C 2,9 km/h
02.07.2010 17:00 40,6 C 23 % 1012,8 hPa 0,0 l/m 0,0 km/h N-NW 15,4 C 40,6 C 0,0 km/h
02.07.2010 18:00 39,2 C 25 % 1012,9 hPa 0,0 l/m 0,0 km/h NO 15,5 C 39,2 C 0,0 km/h
02.07.2010 19:00 32,8 C 35 % 1012,7 hPa 0,0 l/m 0,0 km/h O-NO 15,3 C 32,8 C 0,0 km/h
02.07.2010 20:00 26,6 C 53 % 1013,0 hPa 0,0 l/m 0,0 km/h SO 16,2 C 26,6 C 0,0 km/h
02.07.2010 21:00 22,8 C 64 % 1013,3 hPa 0,0 l/m 0,0 km/h NO 15,6 C 22,8 C 0,0 km/h
02.07.2010 22:00 22,2 C 64 % 1014,1 hPa 0,0 l/m 0,0 km/h SO 15,1 C 22,2 C 0,0 km/h
02.07.2010 23:00 19,9 C 72 % 1014,3 hPa 0,0 l/m 0,0 km/h O-NO 14,7 C 19,9 C 0,0 km/h
03.07.2010 00:00 20,1 C 72 % 1014,2 hPa 0,0 l/m 0,0 km/h O-NO 14,9 C 20,1 C 0,0 km/h
03.07.2010 01:00 19,2 C 75 % 1014,3 hPa 0,0 l/m 0,0 km/h SO 14,7 C 19,2 C 0,0 km/h
03.07.2010 02:00 18,4 C 78 % 1014,5 hPa 0,0 l/m 0,0 km/h NO 14,5 C 18,4 C 0,0 km/h
03.07.2010 03:00 17,8 C 82 % 1014,3 hPa 0,0 l/m 0,0 km/h O-NO 14,7 C 17,8 C 0,0 km/h
03.07.2010 04:00 16,9 C 85 % 1014,4 hPa 0,0 l/m 0,0 km/h NO 14,4 C 16,9 C 0,0 km/h
03.07.2010 05:00 16,9 C 85 % 1014,7 hPa 0,0 l/m 0,0 km/h S-SO 14,4 C 16,9 C 0,0 km/h
03.07.2010 06:00 17,3 C 84 % 1014,7 hPa 0,0 l/m 0,0 km/h O-SO 14,6 C 17,3 C 0,0 km/h
03.07.2010 07:00 20,2 C 79 % 1014,8 hPa 0,0 l/m 0,0 km/h S-SO 16,4 C 20,2 C 0,0 km/h
03.07.2010 08:00 29,8 C 54 % 1015,1 hPa 0,0 l/m 0,0 km/h N-NO 19,5 C 29,8 C 0,0 km/h
03.07.2010 09:00 33,7 C 43 % 1015,2 hPa 0,0 l/m 0,0 km/h W 19,3 C 33,7 C 0,0 km/h
03.07.2010 10:00 34,6 C 41 % 1015,2 hPa 0,0 l/m 0,0 km/h W-SW 19,4 C 34,6 C 0,0 km/h
03.07.2010 11:00 35,8 C 40 % 1015,5 hPa 0,0 l/m 1,9 km/h S-SO 20,1 C 35,8 C 1,1 km/h
03.07.2010 12:00 35,4 C 40 % 1015,1 hPa 0,0 l/m 0,0 km/h W-SW 19,7 C 35,4 C 0,0 km/h
03.07.2010 13:00 33,4 C 45 % 1015,3 hPa 0,0 l/m 0,0 km/h W 19,8 C 33,4 C 0,0 km/h
03.07.2010 14:00 33,0 C 49 % 1015,1 hPa 0,0 l/m 5,2 km/h W-SW 20,8 C 33,0 C 2,9 km/h
03.07.2010 15:00 36,1 C 42 % 1014,9 hPa 0,0 l/m 2,6 km/h N-NO 21,1 C 36,1 C 1,4 km/h
03.07.2010 16:00 37,8 C 35 % 1014,7 hPa 0,0 l/m 0,0 km/h W-NW 19,7 C 37,8 C 0,0 km/h
03.07.2010 17:00 36,9 C 39 % 1015,1 hPa 0,0 l/m 12,3 km/h W-NW 20,6 C 36,9 C 6,8 km/h
03.07.2010 18:00 35,6 C 37 % 1014,7 hPa 0,0 l/m 1,3 km/h W 18,6 C 35,6 C 0,7 km/h
03.07.2010 19:00 30,1 C 51 % 1015,1 hPa 0,0 l/m 0,0 km/h W-SW 18,8 C 30,1 C 0,0 km/h
03.07.2010 20:00 27,8 C 59 % 1015,9 hPa 0,0 l/m 7,8 km/h SO 19,0 C 27,6 C 4,3 km/h
03.07.2010 21:00 24,4 C 65 % 1016,5 hPa 0,0 l/m 0,6 km/h SW 17,4 C 24,4 C 0,4 km/h
03.07.2010 22:00 21,0 C 74 % 1016,7 hPa 0,0 l/m 0,0 km/h S-SO 16,2 C 21,0 C 0,0 km/h
03.07.2010 23:00 20,6 C 75 % 1016,6 hPa 0,0 l/m 10,4 km/h N 16,0 C 19,2 C 5,8 km/h
04.07.2010 00:00 19,6 C 78 % 1017,7 hPa 0,0 l/m 0,0 km/h S-SO 15,7 C 19,6 C 0,0 km/h
04.07.2010 01:00 19,5 C 77 % 1017,8 hPa 0,0 l/m 0,0 km/h S 15,4 C 19,5 C 0,0 km/h
04.07.2010 02:00 19,6 C 78 % 1018,0 hPa 0,0 l/m 0,0 km/h W-NW 15,7 C 19,6 C 0,0 km/h
04.07.2010 03:00 19,3 C 82 % 1018,1 hPa 0,0 l/m 0,0 km/h S-SO 16,1 C 19,3 C 0,0 km/h
04.07.2010 04:00 18,8 C 88 % 1018,3 hPa 0,7 l/m 0,0 km/h SW 16,8 C 18,8 C 0,0 km/h
04.07.2010 05:00 18,5 C 90 % 1018,4 hPa 0,0 l/m 0,0 km/h O-NO 16,8 C 18,5 C 0,0 km/h
04.07.2010 06:00 18,6 C 90 % 1018,8 hPa 0,0 l/m 0,0 km/h N 16,9 C 18,6 C 0,0 km/h
04.07.2010 07:00 19,9 C 89 % 1019,0 hPa 0,0 l/m 0,0 km/h SO 18,0 C 19,9 C 0,0 km/h
04.07.2010 08:00 21,9 C 85 % 1019,4 hPa 0,4 l/m 0,0 km/h N-NO 19,3 C 21,9 C 0,0 km/h
04.07.2010 09:00 25,6 C 73 % 1019,5 hPa 0,0 l/m 3,9 km/h W 20,4 C 25,6 C 2,2 km/h
04.07.2010 10:00 27,9 C 61 % 1019,4 hPa 0,0 l/m 0,0 km/h W-NW 19,7 C 27,9 C 0,0 km/h
04.07.2010 11:00 30,4 C 57 % 1019,5 hPa 0,0 l/m 0,0 km/h S-SW 20,9 C 30,4 C 0,0 km/h
04.07.2010 12:00 30,8 C 52 % 1019,4 hPa 0,0 l/m 8,4 km/h W-SW 19,8 C 30,7 C 4,7 km/h
04.07.2010 13:00 32,8 C 45 % 1018,9 hPa 0,0 l/m 3,2 km/h N-NW 19,3 C 32,8 C 1,8 km/h
04.07.2010 14:00 32,3 C 45 % 1018,7 hPa 0,0 l/m 7,1 km/h W-NW 18,8 C 32,3 C 4,0 km/h
04.07.2010 15:00 31,9 C 49 % 1018,6 hPa 0,0 l/m 0,0 km/h W-SW 19,8 C 31,9 C 0,0 km/h
04.07.2010 16:00 32,9 C 47 % 1018,1 hPa 0,0 l/m 13,0 km/h NW 20,1 C 32,9 C 7,2 km/h
04.07.2010 17:00 30,8 C 49 % 1017,8 hPa 0,0 l/m 6,5 km/h NW 18,8 C 30,8 C 3,6 km/h
04.07.2010 18:00 30,9 C 48 % 1017,7 hPa 0,0 l/m 1,3 km/h S 18,6 C 30,9 C 0,7 km/h
04.07.2010 19:00 26,9 C 63 % 1017,5 hPa 0,0 l/m 0,0 km/h S 19,2 C 26,9 C 0,0 km/h
04.07.2010 20:00 23,6 C 74 % 1017,6 hPa 0,0 l/m 0,0 km/h S-SO 18,7 C 23,6 C 0,0 km/h
04.07.2010 21:00 22,2 C 80 % 1017,7 hPa 0,0 l/m 0,0 km/h S-SO 18,6 C 22,2 C 0,0 km/h
04.07.2010 22:00 20,9 C 82 % 1017,9 hPa 0,0 l/m 0,0 km/h NO 17,7 C 20,9 C 0,0 km/h
04.07.2010 23:00 19,3 C 88 % 1018,4 hPa 7,8 l/m 6,5 km/h S 17,3 C 19,3 C 3,6 km/h
Min-Datum _ 28.06.10 02.07.10 02.07.10 - 28.06.10 - 28.06.10 28.06.10 28.06.10
_ Min-Zeit 05:30 16:30 19:30 - 00:30 - 05:30 05:30 00:30
Minimum _ 13,6 C 23 % 1012,7 hPa - 0,0 km/h - 12,2 C 13,6 C 0,0 km/h
Max-Datum _ 02.07.10 28.06.10 04.07.10 04.07.10 29.06.10 - 03.07.10 02.07.10 29.06.10
_ Max-Zeit 16:30 05:30 09:30 23:30 15:30 - 15:30 16:30 15:30
Maximum _ 41,8 C 91 % 1019,5 hPa 7,8 l/m 19,4 km/h
O
- 21,1 C 41,8 C 10,8 km/h
O
Durchschnitt _ 25,8 C 61 % 1016,1 hPa #8,9 l/m 1,6 km/h O-NO 16,4 C 25,8 C 0,9 km/h